createdAt,value
2018-05-02T00:00:50.863Z,83.39
2018-05-02T00:01:50.769Z,84.05
2018-05-02T00:02:50.877Z,83.67
2018-05-02T00:03:50.713Z,83.67
2018-05-02T00:04:50.789Z,83.67
2018-05-02T00:05:50.659Z,83.67
2018-05-02T00:06:50.702Z,84.05
2018-05-02T00:07:50.612Z,84.24
2018-05-02T00:08:50.714Z,84.05
2018-05-02T00:09:50.560Z,84.14
2018-05-02T00:10:50.625Z,83.86
2018-05-02T00:11:50.507Z,84.33
2018-05-02T00:12:50.642Z,83.86
2018-05-02T00:13:50.454Z,84.05
2018-05-02T00:14:50.553Z,83.86
2018-05-02T00:15:50.409Z,84.24
2018-05-02T00:16:50.469Z,84.72
2018-05-02T00:17:50.350Z,85.00
2018-05-02T00:18:50.480Z,85.00
2018-05-02T00:19:50.301Z,85.00
2018-05-02T00:20:50.390Z,85.19
2018-05-02T00:21:50.249Z,85.00
2018-05-02T00:22:50.302Z,85.57
2018-05-02T00:23:50.194Z,85.66
2018-05-02T00:24:50.317Z,85.28
2018-05-02T00:25:50.145Z,85.57
2018-05-02T00:26:50.228Z,85.19
2018-05-02T00:27:50.092Z,85.38
2018-05-02T00:28:50.241Z,85.00
2018-05-02T00:29:50.039Z,85.47
2018-05-02T00:30:50.154Z,85.47
2018-05-02T00:31:49.987Z,85.38
2018-05-02T00:32:50.063Z,85.19
2018-05-02T00:33:49.935Z,85.47
2018-05-02T00:34:50.079Z,85.28
2018-05-02T00:35:49.882Z,85.47
2018-05-02T00:36:49.989Z,85.47
2018-05-02T00:37:49.835Z,86.00
2018-05-02T00:38:49.900Z,85.72
2018-05-02T00:39:49.779Z,86.19
2018-05-02T00:40:49.915Z,86.00
2018-05-02T00:41:49.727Z,86.00
2018-05-02T00:42:49.827Z,86.57
2018-05-02T00:43:49.673Z,86.47
2018-05-02T00:44:49.845Z,86.57
2018-05-02T00:45:49.628Z,86.38
2018-05-02T00:46:49.752Z,86.57
2018-05-02T00:47:49.569Z,86.57
2018-05-02T00:48:49.665Z,86.57
2018-05-02T00:49:49.517Z,86.29
2018-05-02T00:50:49.673Z,86.57
2018-05-02T00:51:49.465Z,86.10
2018-05-02T00:52:49.590Z,86.76
2018-05-02T00:53:49.411Z,86.67
2018-05-02T00:54:49.502Z,87.34
2018-05-02T00:55:49.361Z,87.05
2018-05-02T00:56:49.516Z,87.43
2018-05-02T00:57:49.307Z,87.43
2018-05-02T00:58:49.429Z,87.62
2018-05-02T00:59:49.254Z,87.62
2018-05-02T01:00:49.340Z,87.90
2018-05-02T01:01:49.204Z,87.71
2018-05-02T01:02:49.352Z,87.52
2018-05-02T01:03:49.150Z,87.71
2018-05-02T01:04:49.264Z,87.34
2018-05-02T01:05:49.098Z,87.24
2018-05-02T01:06:49.279Z,87.24
2018-05-02T01:07:49.044Z,87.34
2018-05-02T01:08:49.190Z,87.24
2018-05-02T01:09:48.992Z,87.43
2018-05-02T01:10:49.102Z,87.48
2018-05-02T01:11:48.944Z,87.52
2018-05-02T01:12:49.114Z,87.62
2018-05-02T01:13:48.887Z,87.57
2018-05-02T01:14:49.026Z,87.62
2018-05-02T01:15:48.834Z,87.43
2018-05-02T01:16:48.940Z,87.29
2018-05-02T01:17:48.781Z,87.76
2018-05-02T01:18:48.957Z,87.76
2018-05-02T01:19:48.729Z,87.76
2018-05-02T01:20:48.865Z,87.57
2018-05-02T01:21:48.677Z,87.76
2018-05-02T01:22:48.677Z,87.76
2018-05-02T01:23:48.623Z,87.86
2018-05-02T01:24:48.688Z,87.86
2018-05-02T01:25:48.573Z,87.86
2018-05-02T01:26:48.597Z,88.15
2018-05-02T01:27:48.520Z,87.86
2018-05-02T01:28:48.613Z,87.76
2018-05-02T01:29:48.463Z,87.76
2018-05-02T01:30:48.527Z,88.15
2018-05-02T01:31:48.411Z,87.10
2018-05-02T01:32:48.436Z,87.10
2018-05-02T01:33:48.357Z,87.38
2018-05-02T01:34:48.450Z,86.72
2018-05-02T01:35:48.313Z,86.76
2018-05-02T01:36:48.360Z,86.57
2018-05-02T01:37:48.254Z,86.47
2018-05-02T01:38:48.275Z,86.19
2018-05-02T01:39:48.201Z,86.19
2018-05-02T01:40:48.294Z,85.86
2018-05-02T01:41:48.143Z,85.62
2018-05-02T01:42:48.198Z,85.39
2018-05-02T01:43:48.093Z,85.81
2018-05-02T01:44:48.110Z,85.86
2018-05-02T01:45:48.044Z,86.19
2018-05-02T01:46:48.126Z,86.29
2018-05-02T01:47:47.985Z,86.38
2018-05-02T01:48:48.035Z,86.76
2018-05-02T01:49:47.932Z,86.86
2018-05-02T01:50:47.948Z,86.91
2018-05-02T01:51:47.879Z,86.72
2018-05-02T01:52:47.961Z,86.53
2018-05-02T01:53:47.827Z,85.86
2018-05-02T01:54:47.873Z,85.68
2018-05-02T01:55:47.774Z,85.68
2018-05-02T01:56:47.887Z,86.24
2018-05-02T01:57:47.720Z,86.53
2018-05-02T01:58:47.800Z,87.19
2018-05-02T01:59:47.668Z,86.53
2018-05-02T02:00:47.710Z,86.91
2018-05-02T02:01:47.613Z,87.10
2018-05-02T02:02:47.725Z,86.53
2018-05-02T02:03:47.565Z,87.19
2018-05-02T02:04:47.640Z,87.01
2018-05-02T02:05:47.508Z,87.19
2018-05-02T02:06:47.547Z,87.19
2018-05-02T02:07:47.455Z,86.91
2018-05-02T02:08:47.562Z,87.48
2018-05-02T02:09:47.399Z,87.48
2018-05-02T02:10:47.474Z,87.76
2018-05-02T02:11:47.348Z,87.86
2018-05-02T02:12:47.383Z,87.76
2018-05-02T02:13:47.292Z,88.05
2018-05-02T02:14:47.405Z,87.95
2018-05-02T02:15:47.241Z,88.15
2018-05-02T02:16:47.311Z,87.86
2018-05-02T02:17:47.189Z,87.76
2018-05-02T02:18:47.223Z,87.67
2018-05-02T02:19:47.133Z,87.48
2018-05-02T02:20:47.237Z,87.95
2018-05-02T02:21:47.081Z,87.86
2018-05-02T02:22:47.148Z,87.76
2018-05-02T02:23:47.027Z,87.91
2018-05-02T02:24:47.162Z,88.62
2018-05-02T02:25:46.974Z,88.86
2018-05-02T02:26:47.072Z,89.33
2018-05-02T02:27:46.922Z,89.67
2018-05-02T02:28:46.991Z,89.72
2018-05-02T02:29:46.866Z,89.62
2018-05-02T02:30:46.997Z,89.24
2018-05-02T02:31:46.816Z,89.24
2018-05-02T02:32:46.911Z,89.33
2018-05-02T02:33:46.760Z,89.14
2018-05-02T02:34:46.834Z,89.24
2018-05-02T02:35:46.707Z,89.14
2018-05-02T02:36:46.836Z,89.24
2018-05-02T02:37:46.655Z,89.24
2018-05-02T02:38:46.749Z,89.33
2018-05-02T02:39:46.598Z,89.72
2018-05-02T02:40:46.660Z,89.72
2018-05-02T02:41:46.560Z,89.81
2018-05-02T02:42:46.674Z,89.72
2018-05-02T02:43:46.494Z,89.90
2018-05-02T02:44:46.587Z,89.81
2018-05-02T02:45:46.442Z,89.53
2018-05-02T02:46:46.501Z,89.33
2018-05-02T02:47:46.384Z,89.72
2018-05-02T02:48:46.510Z,90.28
2018-05-02T02:49:46.328Z,90.19
2018-05-02T02:50:46.423Z,90.57
2018-05-02T02:51:46.292Z,90.19
2018-05-02T02:52:46.438Z,90.28
2018-05-02T02:53:46.222Z,90.09
2018-05-02T02:54:46.351Z,90.47
2018-05-02T02:55:46.168Z,90.47
2018-05-02T02:56:46.261Z,90.38
2018-05-02T02:57:46.113Z,90.57
2018-05-02T02:58:46.274Z,90.85
2018-05-02T02:59:46.065Z,91.04
2018-05-02T03:00:46.185Z,90.95
2018-05-02T03:01:46.005Z,90.62
2018-05-02T03:02:46.098Z,90.81
2018-05-02T03:03:45.951Z,91.19
2018-05-02T03:04:46.112Z,91.19
2018-05-02T03:05:45.898Z,91.56
2018-05-02T03:06:46.025Z,92.14
2018-05-02T03:07:45.845Z,91.75
2018-05-02T03:08:45.940Z,91.75
2018-05-02T03:09:45.789Z,92.04
2018-05-02T03:10:45.950Z,92.14
2018-05-02T03:11:45.737Z,92.23
2018-05-02T03:12:45.861Z,91.94
2018-05-02T03:13:45.683Z,91.66
2018-05-02T03:14:45.771Z,91.94
2018-05-02T03:15:45.628Z,92.14
2018-05-02T03:16:45.785Z,92.61
2018-05-02T03:17:45.575Z,92.42
2018-05-02T03:18:45.695Z,92.42
2018-05-02T03:19:45.519Z,92.80
2018-05-02T03:20:45.612Z,92.52
2018-05-02T03:21:45.467Z,92.52
2018-05-02T03:22:45.622Z,92.61
2018-05-02T03:23:45.408Z,92.33
2018-05-02T03:24:45.538Z,93.37
2018-05-02T03:25:45.356Z,92.61
2018-05-02T03:26:45.450Z,92.61
2018-05-02T03:27:45.305Z,92.61
2018-05-02T03:28:45.462Z,92.52
2018-05-02T03:29:45.244Z,92.71
2018-05-02T03:30:45.376Z,92.61
2018-05-02T03:31:45.203Z,93.18
2018-05-02T03:32:45.387Z,92.80
2018-05-02T03:33:45.136Z,93.08
2018-05-02T03:34:45.299Z,93.27
2018-05-02T03:35:45.087Z,93.08
2018-05-02T03:36:45.105Z,93.18
2018-05-02T03:37:45.027Z,93.27
2018-05-02T03:38:45.120Z,93.84
2018-05-02T03:39:44.974Z,93.75
2018-05-02T03:40:45.035Z,93.94
2018-05-02T03:41:44.918Z,94.51
2018-05-02T03:42:44.945Z,94.42
2018-05-02T03:43:44.868Z,94.32
2018-05-02T03:44:44.956Z,94.60
2018-05-02T03:45:44.811Z,94.51
2018-05-02T03:46:44.868Z,94.32
2018-05-02T03:47:44.756Z,94.51
2018-05-02T03:48:44.780Z,94.42
2018-05-02T03:49:44.698Z,94.60
2018-05-02T03:50:44.795Z,94.23
2018-05-02T03:51:44.646Z,94.51
2018-05-02T03:52:44.705Z,94.32
2018-05-02T03:53:44.592Z,94.32
2018-05-02T03:54:44.617Z,94.79
2018-05-02T03:55:44.535Z,94.60
2018-05-02T03:56:44.631Z,94.32
2018-05-02T03:57:44.506Z,94.60
2018-05-02T03:58:44.545Z,95.07
2018-05-02T03:59:44.492Z,95.07
2018-05-02T04:00:44.430Z,95.07
2018-05-02T04:01:44.371Z,95.17
2018-05-02T04:02:44.469Z,95.36
2018-05-02T04:03:44.318Z,95.46
2018-05-02T04:04:44.382Z,95.46
2018-05-02T04:05:44.263Z,95.36
2018-05-02T04:06:44.292Z,95.27
2018-05-02T04:07:44.206Z,95.27
2018-05-02T04:08:44.307Z,94.79
2018-05-02T04:09:44.152Z,94.98
2018-05-02T04:10:44.218Z,94.98
2018-05-02T04:11:44.095Z,94.89
2018-05-02T04:12:44.132Z,95.17
2018-05-02T04:13:44.037Z,95.17
2018-05-02T04:14:44.144Z,94.98
2018-05-02T04:15:43.984Z,95.17
2018-05-02T04:16:44.056Z,95.27
2018-05-02T04:17:43.927Z,95.07
2018-05-02T04:18:43.980Z,94.79
2018-05-02T04:19:43.874Z,95.07
2018-05-02T04:20:43.981Z,95.27
2018-05-02T04:21:43.819Z,95.84
2018-05-02T04:22:43.895Z,95.46
2018-05-02T04:23:43.765Z,95.98
2018-05-02T04:24:43.804Z,95.74
2018-05-02T04:25:43.707Z,96.03
2018-05-02T04:26:43.816Z,96.03
2018-05-02T04:27:43.652Z,96.03
2018-05-02T04:28:43.730Z,96.31
2018-05-02T04:29:43.598Z,96.03
2018-05-02T04:30:43.643Z,96.12
2018-05-02T04:31:43.543Z,96.22
2018-05-02T04:32:43.657Z,95.93
2018-05-02T04:33:43.487Z,96.12
2018-05-02T04:34:43.572Z,95.84
2018-05-02T04:35:43.431Z,96.12
2018-05-02T04:36:43.478Z,95.74
2018-05-02T04:37:43.375Z,96.12
2018-05-02T04:38:43.492Z,96.03
2018-05-02T04:39:43.320Z,95.93
2018-05-02T04:40:43.404Z,95.93
2018-05-02T04:41:43.274Z,95.93
2018-05-02T04:42:43.315Z,95.36
2018-05-02T04:43:43.210Z,96.03
2018-05-02T04:44:43.330Z,95.74
2018-05-02T04:45:43.155Z,96.22
2018-05-02T04:46:43.242Z,96.22
2018-05-02T04:47:43.102Z,95.93
2018-05-02T04:48:43.155Z,95.65
2018-05-02T04:49:43.043Z,96.22
2018-05-02T04:50:43.167Z,95.93
2018-05-02T04:51:42.993Z,95.93
2018-05-02T04:52:43.129Z,96.59
2018-05-02T04:53:42.933Z,96.31
2018-05-02T04:54:42.992Z,95.74
2018-05-02T04:55:42.878Z,95.46
2018-05-02T04:56:43.003Z,95.55
2018-05-02T04:57:42.822Z,95.93
2018-05-02T04:58:42.918Z,95.46
2018-05-02T04:59:42.765Z,96.22
2018-05-02T05:00:42.826Z,95.65
2018-05-02T05:01:42.710Z,96.22
2018-05-02T05:02:42.843Z,95.93
2018-05-02T05:03:42.657Z,96.22
2018-05-02T05:04:42.681Z,96.03
2018-05-02T05:05:42.605Z,96.22
2018-05-02T05:06:42.703Z,96.12
2018-05-02T05:07:42.543Z,96.03
2018-05-02T05:08:42.679Z,96.12
2018-05-02T05:09:42.488Z,96.12
2018-05-02T05:10:42.590Z,95.84
2018-05-02T05:11:42.433Z,95.74
2018-05-02T05:12:42.502Z,95.93
2018-05-02T05:13:42.377Z,95.93
2018-05-02T05:14:42.517Z,95.93
2018-05-02T05:15:42.323Z,95.84
2018-05-02T05:16:42.428Z,95.84
2018-05-02T05:17:42.267Z,96.03
2018-05-02T05:18:42.403Z,95.55
2018-05-02T05:19:42.211Z,95.55
2018-05-02T05:20:42.351Z,95.07
2018-05-02T05:21:42.155Z,94.98
2018-05-02T05:22:42.267Z,94.98
2018-05-02T05:23:42.102Z,95.46
2018-05-02T05:24:42.181Z,95.27
2018-05-02T05:25:42.046Z,95.70
2018-05-02T05:26:42.192Z,95.98
2018-05-02T05:27:41.991Z,95.46
2018-05-02T05:28:42.102Z,95.79
2018-05-02T05:29:41.934Z,95.70
2018-05-02T05:30:42.014Z,95.41
2018-05-02T05:31:41.880Z,95.22
2018-05-02T05:32:42.029Z,94.93
2018-05-02T05:33:41.826Z,94.74
2018-05-02T05:34:41.941Z,94.37
2018-05-02T05:35:41.770Z,93.99
2018-05-02T05:36:41.955Z,94.27
2018-05-02T05:37:41.715Z,94.46
2018-05-02T05:38:41.866Z,94.56
2018-05-02T05:39:41.660Z,93.80
2018-05-02T05:40:41.776Z,93.80
2018-05-02T05:41:41.606Z,93.80
2018-05-02T05:42:41.789Z,93.99
2018-05-02T05:43:41.633Z,93.60
2018-05-02T05:44:41.703Z,93.80
2018-05-02T05:45:41.496Z,93.70
2018-05-02T05:46:41.615Z,93.23
2018-05-02T05:47:41.441Z,93.32
2018-05-02T05:48:41.629Z,93.04
2018-05-02T05:49:41.385Z,92.94
2018-05-02T05:50:41.438Z,92.85
2018-05-02T05:51:41.332Z,93.04
2018-05-02T05:52:41.348Z,93.37
2018-05-02T05:53:41.277Z,92.75
2018-05-02T05:54:41.364Z,93.18
2018-05-02T05:55:41.221Z,93.27
2018-05-02T05:56:41.274Z,92.42
2018-05-02T05:57:41.167Z,92.61
2018-05-02T05:58:41.189Z,91.85
2018-05-02T05:59:41.114Z,91.66
2018-05-02T06:00:41.221Z,92.61
2018-05-02T06:01:41.059Z,91.85
2018-05-02T06:02:41.118Z,91.94
2018-05-02T06:03:41.005Z,92.13
2018-05-02T06:04:41.027Z,91.47
2018-05-02T06:05:40.950Z,91.47
2018-05-02T06:06:41.051Z,91.47
2018-05-02T06:07:40.896Z,91.66
2018-05-02T06:08:40.955Z,91.38
2018-05-02T06:09:40.841Z,91.28
2018-05-02T06:10:40.862Z,91.13
2018-05-02T06:11:40.787Z,91.04
2018-05-02T06:12:40.956Z,90.75
2018-05-02T06:13:40.734Z,91.13
2018-05-02T06:14:40.788Z,90.75
2018-05-02T06:15:40.680Z,90.47
2018-05-02T06:16:40.701Z,90.66
2018-05-02T06:17:40.624Z,90.66
2018-05-02T06:18:40.720Z,90.09
2018-05-02T06:19:40.571Z,90.28
2018-05-02T06:20:40.625Z,89.33
2018-05-02T06:21:40.517Z,89.42
2018-05-02T06:22:40.546Z,89.52
2018-05-02T06:23:40.463Z,89.56
2018-05-02T06:24:40.550Z,89.28
2018-05-02T06:25:40.409Z,88.71
2018-05-02T06:26:40.461Z,88.80
2018-05-02T06:27:40.356Z,88.04
2018-05-02T06:28:40.476Z,87.95
2018-05-02T06:29:40.303Z,87.66
2018-05-02T06:30:40.389Z,86.99
2018-05-02T06:31:40.297Z,87.66
2018-05-02T06:32:40.300Z,87.28
2018-05-02T06:33:40.200Z,87.47
2018-05-02T06:34:40.313Z,87.47
2018-05-02T06:35:40.142Z,87.47
2018-05-02T06:36:40.225Z,86.99
2018-05-02T06:37:40.165Z,87.28
2018-05-02T06:38:40.136Z,87.09
2018-05-02T06:39:40.042Z,87.04
2018-05-02T06:40:40.150Z,86.94
2018-05-02T06:41:39.983Z,86.57
2018-05-02T06:42:40.062Z,86.28
2018-05-02T06:43:39.930Z,86.38
2018-05-02T06:44:39.973Z,85.80
2018-05-02T06:45:39.877Z,86.09
2018-05-02T06:46:39.988Z,85.52
2018-05-02T06:47:39.824Z,85.90
2018-05-02T06:48:39.898Z,85.24
2018-05-02T06:49:39.770Z,85.90
2018-05-02T06:50:39.814Z,85.52
2018-05-02T06:51:39.716Z,85.14
2018-05-02T06:52:39.824Z,84.66
2018-05-02T06:53:39.667Z,85.33
2018-05-02T06:54:39.738Z,84.76
2018-05-02T06:55:39.615Z,84.99
2018-05-02T06:56:39.750Z,85.08
2018-05-02T06:57:39.565Z,85.28
2018-05-02T06:58:39.662Z,84.70
2018-05-02T06:59:39.510Z,84.52
2018-05-02T07:00:39.573Z,84.61
2018-05-02T07:01:39.461Z,84.70
2018-05-02T07:02:39.588Z,84.33
2018-05-02T07:03:39.406Z,84.33
2018-05-02T07:04:39.499Z,84.70
2018-05-02T07:05:39.351Z,84.13
2018-05-02T07:06:39.324Z,82.80
2018-05-02T07:07:39.304Z,82.80
2018-05-02T07:08:39.323Z,83.65
2018-05-02T07:09:39.252Z,83.13
2018-05-02T07:10:39.337Z,82.84
2018-05-02T07:11:39.197Z,82.75
2018-05-02T07:12:39.171Z,83.13
2018-05-02T07:13:39.422Z,80.65
2018-05-02T07:14:39.118Z,79.60
2018-05-02T07:15:39.169Z,77.42
2018-05-02T07:16:39.068Z,76.56
2018-05-02T07:17:39.043Z,76.46
2018-05-02T07:18:39.016Z,75.93
2018-05-02T07:19:39.092Z,76.12
2018-05-02T07:20:38.972Z,76.40
2018-05-02T07:21:39.106Z,75.84
2018-05-02T07:22:39.011Z,75.64
2018-05-02T07:23:38.888Z,76.31
2018-05-02T07:24:38.926Z,75.07
2018-05-02T07:25:38.836Z,74.69
2018-05-02T07:26:38.836Z,75.07
2018-05-02T07:27:38.785Z,76.12
2018-05-02T07:28:38.849Z,76.31
2018-05-02T07:29:38.737Z,75.84
2018-05-02T07:30:38.759Z,75.40
2018-05-02T07:31:38.683Z,75.20
2018-05-02T07:32:38.775Z,74.92
2018-05-02T07:33:38.631Z,74.63
2018-05-02T07:34:38.686Z,74.73
2018-05-02T07:35:38.581Z,74.73
2018-05-02T07:36:38.598Z,75.11
2018-05-02T07:37:38.533Z,74.35
2018-05-02T07:38:38.611Z,73.39
2018-05-02T07:39:38.482Z,73.77
2018-05-02T07:40:38.522Z,73.77
2018-05-02T07:41:38.428Z,74.06
2018-05-02T07:42:38.411Z,73.68
2018-05-02T07:43:38.387Z,75.01
2018-05-02T07:44:38.358Z,74.10
2018-05-02T07:45:38.332Z,74.96
2018-05-02T07:46:38.361Z,74.57
2018-05-02T07:47:38.282Z,74.01
2018-05-02T07:48:38.277Z,74.57
2018-05-02T07:49:38.224Z,73.24
2018-05-02T07:50:38.286Z,73.91
2018-05-02T07:51:38.177Z,73.62
2018-05-02T07:52:38.196Z,72.86
2018-05-02T07:53:38.127Z,72.09
2018-05-02T07:54:38.211Z,72.38
2018-05-02T07:55:38.080Z,72.67
2018-05-02T07:56:38.133Z,72.48
2018-05-02T07:57:38.027Z,72.96
2018-05-02T07:58:38.034Z,72.86
2018-05-02T07:59:37.978Z,74.04
2018-05-02T08:00:38.047Z,73.52
2018-05-02T08:01:37.925Z,72.03
2018-05-02T08:02:37.958Z,71.56
2018-05-02T08:03:37.877Z,70.98
2018-05-02T08:04:37.873Z,69.17
2018-05-02T08:05:37.827Z,68.70
2018-05-02T08:06:37.883Z,69.37
2018-05-02T08:07:37.778Z,69.93
2018-05-02T08:08:37.799Z,71.56
2018-05-02T08:09:37.727Z,72.13
2018-05-02T08:10:37.811Z,70.70
2018-05-02T08:11:37.681Z,69.08
2018-05-02T08:12:37.722Z,70.36
2018-05-02T08:13:37.629Z,70.51
2018-05-02T08:14:37.634Z,70.13
2018-05-02T08:15:37.583Z,70.16
2018-05-02T08:16:37.648Z,69.02
2018-05-02T08:17:37.532Z,69.46
2018-05-02T08:18:37.568Z,70.54
2018-05-02T08:19:37.483Z,69.11
2018-05-02T08:20:37.470Z,68.82
2018-05-02T08:21:37.435Z,69.21
2018-05-02T08:22:37.485Z,69.31
2018-05-02T08:23:37.386Z,70.07
2018-05-02T08:24:37.397Z,70.64
2018-05-02T08:25:37.341Z,69.68
2018-05-02T08:26:37.409Z,68.63
2018-05-02T08:27:37.289Z,68.06
2018-05-02T08:28:37.322Z,68.35
2018-05-02T08:29:37.238Z,69.31
2018-05-02T08:30:37.235Z,68.73
2018-05-02T08:31:37.190Z,68.44
2018-05-02T08:32:37.251Z,67.14
2018-05-02T08:33:37.142Z,66.19
2018-05-02T08:34:37.160Z,65.80
2018-05-02T08:35:37.097Z,65.14
2018-05-02T08:36:37.174Z,65.90
2018-05-02T08:37:37.046Z,65.23
2018-05-02T08:38:37.085Z,66.09
2018-05-02T08:39:36.999Z,65.42
2018-05-02T08:40:36.996Z,65.23
2018-05-02T08:41:36.949Z,64.37
2018-05-02T08:42:37.014Z,65.33
2018-05-02T08:43:36.902Z,64.59
2018-05-02T08:44:36.921Z,62.97
2018-05-02T08:45:36.856Z,63.73
2018-05-02T08:46:36.937Z,63.64
2018-05-02T08:47:36.812Z,62.21
2018-05-02T08:48:36.850Z,62.78
2018-05-02T08:49:36.761Z,61.44
2018-05-02T08:50:36.759Z,60.04
2018-05-02T08:51:36.712Z,59.47
2018-05-02T08:52:36.787Z,59.66
2018-05-02T08:53:36.663Z,60.04
2018-05-02T08:54:36.685Z,59.56
2018-05-02T08:55:36.617Z,59.75
2018-05-02T08:56:36.703Z,61.31
2018-05-02T08:57:36.569Z,60.35
2018-05-02T08:58:36.609Z,58.83
2018-05-02T08:59:36.523Z,57.48
2018-05-02T09:00:36.522Z,58.25
2018-05-02T09:01:36.479Z,56.82
2018-05-02T09:02:36.537Z,59.59
2018-05-02T09:03:36.435Z,59.78
2018-05-02T09:04:36.448Z,57.58
2018-05-02T09:05:36.384Z,57.80
2018-05-02T09:06:36.463Z,56.94
2018-05-02T09:07:36.335Z,55.79
2018-05-02T09:08:36.311Z,54.74
2018-05-02T09:09:36.289Z,53.02
2018-05-02T09:10:36.286Z,56.27
2018-05-02T09:11:36.243Z,53.30
2018-05-02T09:12:36.299Z,53.49
2018-05-02T09:13:36.200Z,56.37
2018-05-02T09:14:36.173Z,56.20
2018-05-02T09:15:36.235Z,56.13
2018-05-02T09:16:36.128Z,54.32
2018-05-02T09:17:36.130Z,54.28
2018-05-02T09:18:36.086Z,54.28
2018-05-02T09:19:36.145Z,54.50
2018-05-02T09:20:36.035Z,51.79
2018-05-02T09:21:36.058Z,54.28
2018-05-02T09:22:35.992Z,55.46
2018-05-02T09:23:36.072Z,53.45
2018-05-02T09:24:35.947Z,53.74
2018-05-02T09:25:35.982Z,52.20
2018-05-02T09:26:35.898Z,52.78
2018-05-02T09:27:35.893Z,53.45
2018-05-02T09:28:35.853Z,54.50
2018-05-02T09:29:35.906Z,54.91
2018-05-02T09:30:35.808Z,53.38
2018-05-02T09:31:35.818Z,53.09
2018-05-02T09:32:35.765Z,51.46
2018-05-02T09:33:35.832Z,52.91
2018-05-02T09:34:35.720Z,51.68
2018-05-02T09:35:35.795Z,51.59
2018-05-02T09:36:35.675Z,51.59
2018-05-02T09:37:35.758Z,51.65
2018-05-02T09:38:35.629Z,51.37
2018-05-02T09:39:35.669Z,52.93
2018-05-02T09:40:35.586Z,51.40
2018-05-02T09:41:35.580Z,50.63
2018-05-02T09:42:35.541Z,51.30
2018-05-02T09:43:35.595Z,50.34
2018-05-02T09:44:35.498Z,51.68
2018-05-02T09:45:35.475Z,49.88
2018-05-02T09:46:35.511Z,48.93
2018-05-02T09:47:35.430Z,48.83
2018-05-02T09:48:35.425Z,49.98
2018-05-02T09:49:35.391Z,48.93
2018-05-02T09:50:35.440Z,47.97
2018-05-02T09:51:35.347Z,49.24
2018-05-02T09:52:35.363Z,49.72
2018-05-02T09:53:35.300Z,49.82
2018-05-02T09:54:35.373Z,48.38
2018-05-02T09:55:35.257Z,47.61
2018-05-02T09:56:35.277Z,47.03
2018-05-02T09:57:35.213Z,47.30
2018-05-02T09:58:35.289Z,48.95
2018-05-02T09:59:35.171Z,49.74
2018-05-02T10:00:35.202Z,49.84
2018-05-02T10:01:35.131Z,49.07
2018-05-02T10:02:35.214Z,47.15
2018-05-02T10:03:35.086Z,45.52
2018-05-02T10:04:35.207Z,49.10
2018-05-02T10:05:35.044Z,46.98
2018-05-02T10:06:35.043Z,46.98
2018-05-02T10:07:35.003Z,46.98
2018-05-02T10:08:35.055Z,46.12
2018-05-02T10:09:34.959Z,44.65
2018-05-02T10:10:34.964Z,47.53
2018-05-02T10:11:34.928Z,46.00
2018-05-02T10:12:35.014Z,46.58
2018-05-02T10:13:34.876Z,47.15
2018-05-02T10:14:34.889Z,46.94
2018-05-02T10:15:34.834Z,46.72
2018-05-02T10:16:34.903Z,46.24
2018-05-02T10:17:34.792Z,47.20
2018-05-02T10:18:34.857Z,49.31
2018-05-02T10:19:34.751Z,49.12
2018-05-02T10:20:34.832Z,46.53
2018-05-02T10:21:34.713Z,46.72
2018-05-02T10:22:34.739Z,45.88
2018-05-02T10:23:34.669Z,47.61
2018-05-02T10:24:34.757Z,47.41
2018-05-02T10:25:34.628Z,46.09
2018-05-02T10:26:34.665Z,44.80
2018-05-02T10:27:34.586Z,45.18
2018-05-02T10:28:34.578Z,46.91
2018-05-02T10:29:34.555Z,48.07
2018-05-02T10:30:34.594Z,48.66
2018-05-02T10:31:34.507Z,47.80
2018-05-02T10:32:34.505Z,45.67
2018-05-02T10:33:34.460Z,49.82
2018-05-02T10:34:34.520Z,49.26
2018-05-02T10:35:34.421Z,47.36
2018-05-02T10:36:34.431Z,46.31
2018-05-02T10:37:34.380Z,46.41
2018-05-02T10:38:34.442Z,49.02
2018-05-02T10:39:34.340Z,46.84
2018-05-02T10:40:34.353Z,45.32
2018-05-02T10:41:34.298Z,45.51
2018-05-02T10:42:34.369Z,42.99
2018-05-02T10:43:34.257Z,44.60
2018-05-02T10:44:34.279Z,46.14
2018-05-02T10:45:34.220Z,45.18
2018-05-02T10:46:34.302Z,47.49
2018-05-02T10:47:34.178Z,46.04
2018-05-02T10:48:34.205Z,45.56
2018-05-02T10:49:34.136Z,47.80
2018-05-02T10:50:34.307Z,46.19
2018-05-02T10:51:34.100Z,49.38
2018-05-02T10:52:34.137Z,47.39
2018-05-02T10:53:34.060Z,43.54
2018-05-02T10:54:34.146Z,42.47
2018-05-02T10:55:34.020Z,43.99
2018-05-02T10:56:34.059Z,44.84
2018-05-02T10:57:33.980Z,44.65
2018-05-02T10:58:34.070Z,45.80
2018-05-02T10:59:33.944Z,45.70
2018-05-02T11:00:33.987Z,45.90
2018-05-02T11:01:33.903Z,44.84
2018-05-02T11:02:34.018Z,45.49
2018-05-02T11:03:33.867Z,44.79
2018-05-02T11:04:33.908Z,46.23
2018-05-02T11:05:33.826Z,46.23
2018-05-02T11:06:33.935Z,46.62
2018-05-02T11:07:33.791Z,47.39
2018-05-02T11:08:33.834Z,50.76
2018-05-02T11:09:33.751Z,49.33
2018-05-02T11:10:33.745Z,46.04
2018-05-02T11:11:33.714Z,45.85
2018-05-02T11:12:33.759Z,45.54
2018-05-02T11:13:33.673Z,47.49
2018-05-02T11:14:33.672Z,46.69
2018-05-02T11:15:33.642Z,47.08
2018-05-02T11:16:33.686Z,49.69
2018-05-02T11:17:33.599Z,48.95
2018-05-02T11:18:33.702Z,45.97
2018-05-02T11:19:33.561Z,46.77
2018-05-02T11:20:33.547Z,44.91
2018-05-02T11:21:33.618Z,45.39
2018-05-02T11:22:33.505Z,44.43
2018-05-02T11:23:33.529Z,44.62
2018-05-02T11:24:33.466Z,45.78
2018-05-02T11:25:33.544Z,47.72
2018-05-02T11:26:33.430Z,48.21
2018-05-02T11:27:33.458Z,45.70
2018-05-02T11:28:33.393Z,45.42
2018-05-02T11:29:33.469Z,43.49
2018-05-02T11:30:33.353Z,45.03
2018-05-02T11:31:33.381Z,46.09
2018-05-02T11:32:33.319Z,43.88
2018-05-02T11:33:33.306Z,45.80
2018-05-02T11:34:33.282Z,47.44
2018-05-02T11:35:33.309Z,47.17
2018-05-02T11:36:33.247Z,45.25
2018-05-02T11:37:33.320Z,44.76
2018-05-02T11:38:33.210Z,42.46
2018-05-02T11:39:33.233Z,42.46
2018-05-02T11:40:33.180Z,43.23
2018-05-02T11:41:33.247Z,44.48
2018-05-02T11:42:33.135Z,44.38
2018-05-02T11:43:33.157Z,46.21
2018-05-02T11:44:33.096Z,48.16
2018-05-02T11:45:33.170Z,46.45
2018-05-02T11:46:33.063Z,45.20
2018-05-02T11:47:33.083Z,43.77
2018-05-02T11:48:33.028Z,42.80
2018-05-02T11:49:33.098Z,43.19
2018-05-02T11:50:32.988Z,41.05
2018-05-02T11:51:33.008Z,43.05
2018-05-02T11:52:32.954Z,44.02
2018-05-02T11:53:33.021Z,41.80
2018-05-02T11:54:32.917Z,42.38
2018-05-02T11:55:32.934Z,42.28
2018-05-02T11:56:32.883Z,41.80
2018-05-02T11:57:32.949Z,45.48
2018-05-02T11:58:32.852Z,43.73
2018-05-02T11:59:32.860Z,44.32
2018-05-02T12:00:32.813Z,43.85
2018-05-02T12:01:32.873Z,43.82
2018-05-02T12:02:32.783Z,43.05
2018-05-02T12:03:32.814Z,43.73
2018-05-02T12:04:32.742Z,42.26
2018-05-02T12:05:32.803Z,43.03
2018-05-02T12:06:32.708Z,43.13
2018-05-02T12:07:32.715Z,43.03
2018-05-02T12:08:32.672Z,45.15
2018-05-02T12:09:32.726Z,44.98
2018-05-02T12:10:32.783Z,44.21
2018-05-02T12:11:32.637Z,44.19
2018-05-02T12:12:32.606Z,42.26
2018-05-02T12:13:32.651Z,44.09
2018-05-02T12:14:32.586Z,44.09
2018-05-02T12:15:32.562Z,44.86
2018-05-02T12:16:32.535Z,45.75
2018-05-02T12:17:32.576Z,44.31
2018-05-02T12:18:32.504Z,44.31
2018-05-02T12:19:32.591Z,42.47
2018-05-02T12:20:32.466Z,41.89
2018-05-02T12:21:32.502Z,42.26
2018-05-02T12:22:32.429Z,45.75
2018-05-02T12:23:32.517Z,43.44
2018-05-02T12:24:32.397Z,42.28
2018-05-02T12:25:32.428Z,44.23
2018-05-02T12:26:32.359Z,42.19
2018-05-02T12:27:32.440Z,42.21
2018-05-02T12:28:32.327Z,42.30
2018-05-02T12:29:32.351Z,42.30
2018-05-02T12:30:32.288Z,42.21
2018-05-02T12:31:32.381Z,40.09
2018-05-02T12:32:32.257Z,41.92
2018-05-02T12:33:32.338Z,41.72
2018-05-02T12:34:32.221Z,41.03
2018-05-02T12:35:32.312Z,42.57
2018-05-02T12:36:32.299Z,40.55
2018-05-02T12:37:32.170Z,41.59
2018-05-02T12:38:32.213Z,42.16
2018-05-02T12:39:32.132Z,40.91
2018-05-02T12:40:32.118Z,43.34
2018-05-02T12:41:32.104Z,42.47
2018-05-02T12:42:32.137Z,42.09
2018-05-02T12:43:32.071Z,42.46
2018-05-02T12:44:32.151Z,42.16
2018-05-02T12:45:32.029Z,42.46
2018-05-02T12:46:32.062Z,43.13
2018-05-02T12:47:31.994Z,44.89
2018-05-02T12:48:32.079Z,42.28
2018-05-02T12:49:31.961Z,41.99
2018-05-02T12:50:31.989Z,42.96
2018-05-02T12:51:31.926Z,44.31
2018-05-02T12:52:32.003Z,41.89